Madre Pilar — EA3035 — position and weather

sailwx.info

Track history (hours):
 
Tides and Currents Weather Stations Pressure Air Temp Water Temp Dewpoint Dewpoint Depression Visibility Wind Speed Wind Dir Waves Ship Positions

Madre Pilar

Last reported at 2018-Jun-19 05:22 UTC. Time now 2018-Jun-21 12:21 UTC.
Position N 43°20' W 002°25'.

Length 20 m.

Type: Fishing. MMSI: 224139890.

Date/timePositionNaut miles runAvg speedWind from/ knotsBaromVisibWave heightAir tempDewpointWater temp
2018-Jun-19 05:22N 43°20' W 002°25'2 5.0
2018-Jun-19 05:00N 43°22' W 002°24'2 4.0
2018-Jun-19 04:30N 43°24' W 002°24'3 6.6
2018-Jun-19 04:00N 43°27' W 002°22'3 6.6
2018-Jun-19 03:30N 43°30' W 002°21'3 6.7
2018-Jun-19 03:00N 43°33' W 002°20'3 6.6
2018-Jun-19 02:30N 43°37' W 002°19'3 6.4
2018-Jun-19 02:00N 43°40' W 002°18'3 6.5
2018-Jun-19 01:30N 43°43' W 002°17'4 7.2
2018-Jun-19 01:00N 43°46' W 002°16'3 6.9
2018-Jun-19 00:30N 43°50' W 002°15'3 6.6
2018-Jun-19 00:00N 43°53' W 002°14'3 6.5
2018-Jun-18 23:30N 43°56' W 002°13'3 6.6
2018-Jun-18 23:00N 43°59' W 002°13'3 6.7
2018-Jun-18 22:30N 44°03' W 002°11'26 2.9
2018-Jun-18 13:39N 44°28' W 002°04'0 0.8
2018-Jun-18 13:22N 44°28' W 002°05'0 0.9
2018-Jun-18 13:00N 44°28' W 002°05'1 0.5
2018-Jun-18 11:46N 44°28' W 002°06'1 0.8
2018-Jun-18 11:06N 44°27' W 002°07'0 0.7
2018-Jun-18 10:52N 44°27' W 002°07'0 0.9
2018-Jun-18 10:27N 44°27' W 002°07'0 0.7
2018-Jun-18 09:53N 44°27' W 002°08'0 0.2
2018-Jun-18 08:47N 44°27' W 002°08'0 0.8
2018-Jun-18 08:29N 44°27' W 002°08'1 1.1
2018-Jun-18 08:00N 44°27' W 002°08'0 0.7
2018-Jun-18 07:25N 44°27' W 002°08'3 0.4
2018-Jun-18 00:08N 44°28' W 002°04'0 0.4
2018-Jun-18 00:00N 44°28' W 002°04'0 0.5
2018-Jun-17 23:31N 44°28' W 002°04'0 0.3
2018-Jun-17 23:00N 44°28' W 002°05'0 0.2
2018-Jun-17 22:28N 44°28' W 002°05'0 0.3
2018-Jun-17 22:00N 44°28' W 002°05'0 0.2
2018-Jun-17 21:27N 44°28' W 002°05'0 0.2
2018-Jun-17 21:00N 44°28' W 002°05'0 0.0
2018-Jun-17 20:26N 44°28' W 002°05'1 0.6
2018-Jun-17 19:11N 44°29' W 002°05'0 0.4
2018-Jun-17 18:56N 44°29' W 002°05'2 0.6
2018-Jun-17 15:15N 44°27' W 002°08'1 0.8
2018-Jun-17 14:20N 44°27' W 002°09'2 0.3
2018-Jun-17 06:28N 44°27' W 002°05'1 0.1
2018-Jun-16 22:07N 44°28' W 002°06'1 1.9
2018-Jun-16 21:40N 44°28' W 002°05'2 0.3
2018-Jun-16 13:45N 44°27' W 002°08'0 0.8
2018-Jun-16 13:25N 44°27' W 002°08'0 0.6
2018-Jun-16 12:56N 44°27' W 002°09'0 0.4
2018-Jun-16 11:56N 44°27' W 002°09'2 0.6
2018-Jun-16 08:36N 44°25' W 002°07'0 0.6
2018-Jun-16 08:23N 44°26' W 002°07'0 0.7
2018-Jun-16 07:59N 44°26' W 002°07'1 0.1
2018-Jun-16 00:52N 44°26' W 002°09'0 0.1
2018-Jun-16 00:28N 44°26' W 002°09'0 0.2
2018-Jun-16 00:00N 44°26' W 002°09'4 0.2
2018-Jun-15 07:53N 44°28' W 002°04'0 0.1
2018-Jun-15 06:33N 44°28' W 002°04'0 0.1
2018-Jun-15 06:07N 44°28' W 002°04'0 0.3
2018-Jun-15 05:42N 44°28' W 002°04'0 0.9
2018-Jun-15 05:24N 44°28' W 002°04'0 0.5
2018-Jun-15 05:00N 44°28' W 002°04'1 0.5
2018-Jun-15 02:56N 44°29' W 002°05'0 0.4
2018-Jun-15 01:56N 44°29' W 002°05'1 2.1
2018-Jun-15 01:19N 44°28' W 002°05'0 0.4
2018-Jun-15 01:00N 44°28' W 002°05'1 1.0
2018-Jun-15 00:17N 44°28' W 002°05'0 1.0
2018-Jun-14 23:51N 44°28' W 002°06'1 2.7
2018-Jun-14 23:29N 44°28' W 002°05'1 1.0
2018-Jun-14 22:57N 44°28' W 002°05'0 1.0
2018-Jun-14 22:29N 44°28' W 002°06'1 0.8
2018-Jun-14 21:46N 44°29' W 002°05'0 0.7
2018-Jun-14 21:30N 44°29' W 002°06'0 0.7
2018-Jun-14 21:00N 44°29' W 002°06'0 0.6
2018-Jun-14 20:30N 44°28' W 002°06'1 0.8
2018-Jun-14 19:29N 44°29' W 002°06'1 0.3
2018-Jun-14 15:57N 44°28' W 002°05'1 0.7
2018-Jun-14 15:09N 44°28' W 002°04'0 0.3
2018-Jun-14 13:59N 44°28' W 002°05'0 0.6
2018-Jun-14 13:30N 44°28' W 002°05'1 0.7
2018-Jun-14 12:39N 44°28' W 002°06'0 0.8
2018-Jun-14 12:12N 44°27' W 002°06'0 0.8
2018-Jun-14 12:00N 44°27' W 002°06'0 0.7
2018-Jun-14 11:23N 44°27' W 002°07'0 0.6
2018-Jun-14 10:59N 44°27' W 002°07'0 0.5
2018-Jun-14 10:22N 44°27' W 002°08'0 0.6
2018-Jun-14 09:52N 44°27' W 002°08'0 0.4
2018-Jun-14 09:29N 44°27' W 002°08'0 0.2
2018-Jun-14 08:44N 44°27' W 002°09'0 0.0
2018-Jun-14 08:03N 44°27' W 002°09'0 1.1
2018-Jun-14 08:00N 44°27' W 002°09'11 0.9
2018-Jun-13 18:59N 44°16' W 002°08'3 6.7
2018-Jun-13 18:31N 44°13' W 002°09'5 6.7
2018-Jun-13 17:46N 44°08' W 002°10'2 6.7
2018-Jun-13 17:30N 44°07' W 002°11'3 6.6
2018-Jun-13 17:01N 44°03' W 002°12'2 4.9
2018-Jun-13 16:30N 44°01' W 002°13'2 4.5
2018-Jun-13 16:01N 43°59' W 002°13'2 4.6
2018-Jun-13 15:30N 43°56' W 002°14'2 4.9
2018-Jun-13 15:00N 43°54' W 002°14'3 5.3
2018-Jun-13 14:30N 43°51' W 002°15'3 5.5
2018-Jun-13 14:00N 43°49' W 002°16'3 5.8
2018-Jun-13 13:30N 43°46' W 002°17'3 5.7
2018-Jun-13 13:00N 43°43' W 002°18'3 5.6
2018-Jun-13 12:30N 43°40' W 002°19'3 5.4
2018-Jun-13 12:01N 43°38' W 002°20'3 5.2
2018-Jun-13 11:30N 43°35' W 002°20'2 4.9
2018-Jun-13 11:00N 43°33' W 002°21'2 4.6
2018-Jun-13 10:30N 43°31' W 002°22'2 4.3
2018-Jun-13 10:00N 43°28' W 002°22'2 4.3
2018-Jun-13 09:30N 43°26' W 002°22'2 3.8
2018-Jun-13 09:00N 43°24' W 002°22'2 3.9
2018-Jun-13 08:30N 43°23' W 002°23'2 4.5
2018-Jun-13 08:00N 43°20' W 002°24'1 0.0
2018-Jun-11 08:43N 43°19' W 002°25'0 0.0
2018-Jun-11 06:13N 43°19' W 002°25'0 0.0
2018-Jun-11 05:54N 43°19' W 002°25'1 0.7
2018-Jun-11 04:49N 43°20' W 002°25'1 4.4
2018-Jun-11 04:31N 43°21' W 002°24'3 5.0
2018-Jun-11 04:00N 43°24' W 002°23'4 7.3
2018-Jun-11 03:30N 43°27' W 002°21'4 7.2
2018-Jun-11 03:01N 43°31' W 002°20'4 7.5
2018-Jun-11 02:30N 43°34' W 002°19'4 7.8
2018-Jun-11 02:01N 43°38' W 002°17'4 7.8
2018-Jun-11 01:31N 43°42' W 002°16'4 7.9
2018-Jun-11 01:00N 43°46' W 002°15'4 8.3
2018-Jun-11 00:30N 43°50' W 002°13'4 8.3
2018-Jun-11 00:00N 43°54' W 002°12'4 8.6
2018-Jun-10 23:30N 43°58' W 002°11'4 8.5
2018-Jun-10 23:00N 44°02' W 002°10'14 8.2
2018-Jun-10 21:17N 44°16' W 002°05'12 5.7
2018-Jun-10 19:12N 44°28' W 002°07'0 0.1
2018-Jun-10 18:43N 44°28' W 002°07'0 0.6
2018-Jun-10 18:30N 44°28' W 002°06'0 0.7
2018-Jun-10 17:57N 44°28' W 002°06'0 0.7
2018-Jun-10 17:30N 44°28' W 002°05'0 0.4
2018-Jun-10 16:59N 44°28' W 002°05'2 0.5
2018-Jun-10 13:55N 44°29' W 002°06'0 0.2
2018-Jun-10 13:29N 44°30' W 002°06'3 1.4
2018-Jun-10 11:10N 44°27' W 002°09'0 0.5
2018-Jun-10 11:00N 44°27' W 002°09'0 0.4
2018-Jun-10 10:00N 44°27' W 002°09'0 0.6
2018-Jun-10 09:21N 44°26' W 002°09'0 0.2
2018-Jun-10 08:04N 44°26' W 002°09'0 0.0
2018-Jun-10 04:50N 44°26' W 002°08'0 0.3
2018-Jun-10 04:28N 44°26' W 002°08'1 1.3
2018-Jun-10 04:00N 44°26' W 002°09'2 2.7
2018-Jun-10 03:24N 44°27' W 002°07'2 1.7
2018-Jun-10 01:57N 44°30' W 002°06'1 0.7
2018-Jun-10 00:40N 44°29' W 002°07'0 0.3
2018-Jun-10 00:30N 44°29' W 002°07'0 0.1
2018-Jun-09 22:54N 44°29' W 002°07'2 5.4
2018-Jun-09 22:31N 44°27' W 002°08'1 0.3
2018-Jun-09 20:58N 44°28' W 002°08'1 3.2
2018-Jun-09 20:31N 44°27' W 002°09'0 0.5
2018-Jun-09 20:00N 44°27' W 002°09'0 0.7
2018-Jun-09 19:30N 44°27' W 002°09'0 0.7
2018-Jun-09 18:53N 44°27' W 002°09'0 0.9
2018-Jun-09 18:30N 44°28' W 002°08'0 0.8
2018-Jun-09 18:00N 44°28' W 002°08'0 0.6
2018-Jun-09 17:29N 44°28' W 002°07'2 0.5
2018-Jun-09 14:24N 44°28' W 002°05'1 0.6
2018-Jun-09 13:08N 44°29' W 002°06'0 0.5
2018-Jun-09 12:53N 44°29' W 002°06'1 2.5
2018-Jun-09 12:22N 44°28' W 002°06'1 0.7
2018-Jun-09 10:57N 44°27' W 002°07'0 0.8
2018-Jun-09 10:28N 44°27' W 002°08'1 0.7
2018-Jun-09 09:39N 44°27' W 002°09'0 0.5
2018-Jun-09 09:30N 44°27' W 002°09'0 0.2
2018-Jun-09 09:00N 44°27' W 002°09'0 0.3
2018-Jun-09 08:29N 44°27' W 002°09'0 0.2
2018-Jun-09 08:00N 44°27' W 002°09'0 0.6
2018-Jun-09 07:30N 44°27' W 002°09'0 0.3
2018-Jun-09 06:45N 44°27' W 002°09'0 0.5
2018-Jun-09 06:30N 44°27' W 002°09'0 0.3
2018-Jun-09 06:00N 44°27' W 002°09'  
Track history (hours):
 
Tides and Currents Weather Stations Pressure Air Temp Water Temp Dewpoint Dewpoint Depression Visibility Wind Speed Wind Dir Waves Ship Positions

Madre Pilar

Last reported at 2018-Jun-19 05:22 UTC. Time now 2018-Jun-21 12:21 UTC.
Position N 43°20' W 002°25'.

Length 20 m.

Type: Fishing. MMSI: 224139890.

Date/timePositionNaut miles runAvg speedWind from/ knotsBaromVisibWave heightAir tempDewpointWater temp
2018-Jun-19 05:22N 43°20' W 002°25'2 5.0
2018-Jun-19 05:00N 43°22' W 002°24'2 4.0
2018-Jun-19 04:30N 43°24' W 002°24'3 6.6
2018-Jun-19 04:00N 43°27' W 002°22'3 6.6
2018-Jun-19 03:30N 43°30' W 002°21'3 6.7
2018-Jun-19 03:00N 43°33' W 002°20'3 6.6
2018-Jun-19 02:30N 43°37' W 002°19'3 6.4
2018-Jun-19 02:00N 43°40' W 002°18'3 6.5
2018-Jun-19 01:30N 43°43' W 002°17'4 7.2
2018-Jun-19 01:00N 43°46' W 002°16'3 6.9
2018-Jun-19 00:30N 43°50' W 002°15'3 6.6
2018-Jun-19 00:00N 43°53' W 002°14'3 6.5
2018-Jun-18 23:30N 43°56' W 002°13'3 6.6
2018-Jun-18 23:00N 43°59' W 002°13'3 6.7
2018-Jun-18 22:30N 44°03' W 002°11'26 2.9
2018-Jun-18 13:39N 44°28' W 002°04'0 0.8
2018-Jun-18 13:22N 44°28' W 002°05'0 0.9
2018-Jun-18 13:00N 44°28' W 002°05'1 0.5
2018-Jun-18 11:46N 44°28' W 002°06'1 0.8
2018-Jun-18 11:06N 44°27' W 002°07'0 0.7
2018-Jun-18 10:52N 44°27' W 002°07'0 0.9
2018-Jun-18 10:27N 44°27' W 002°07'0 0.7
2018-Jun-18 09:53N 44°27' W 002°08'0 0.2
2018-Jun-18 08:47N 44°27' W 002°08'0 0.8
2018-Jun-18 08:29N 44°27' W 002°08'1 1.1
2018-Jun-18 08:00N 44°27' W 002°08'0 0.7
2018-Jun-18 07:25N 44°27' W 002°08'3 0.4
2018-Jun-18 00:08N 44°28' W 002°04'0 0.4
2018-Jun-18 00:00N 44°28' W 002°04'0 0.5
2018-Jun-17 23:31N 44°28' W 002°04'0 0.3
2018-Jun-17 23:00N 44°28' W 002°05'0 0.2
2018-Jun-17 22:28N 44°28' W 002°05'0 0.3
2018-Jun-17 22:00N 44°28' W 002°05'0 0.2
2018-Jun-17 21:27N 44°28' W 002°05'0 0.2
2018-Jun-17 21:00N 44°28' W 002°05'0 0.0
2018-Jun-17 20:26N 44°28' W 002°05'1 0.6
2018-Jun-17 19:11N 44°29' W 002°05'0 0.4
2018-Jun-17 18:56N 44°29' W 002°05'2 0.6
2018-Jun-17 15:15N 44°27' W 002°08'1 0.8
2018-Jun-17 14:20N 44°27' W 002°09'2 0.3
2018-Jun-17 06:28N 44°27' W 002°05'1 0.1
2018-Jun-16 22:07N 44°28' W 002°06'1 1.9
2018-Jun-16 21:40N 44°28' W 002°05'2 0.3
2018-Jun-16 13:45N 44°27' W 002°08'0 0.8
2018-Jun-16 13:25N 44°27' W 002°08'0 0.6
2018-Jun-16 12:56N 44°27' W 002°09'0 0.4
2018-Jun-16 11:56N 44°27' W 002°09'2 0.6
2018-Jun-16 08:36N 44°25' W 002°07'0 0.6
2018-Jun-16 08:23N 44°26' W 002°07'0 0.7
2018-Jun-16 07:59N 44°26' W 002°07'1 0.1
2018-Jun-16 00:52N 44°26' W 002°09'0 0.1
2018-Jun-16 00:28N 44°26' W 002°09'0 0.2
2018-Jun-16 00:00N 44°26' W 002°09'4 0.2
2018-Jun-15 07:53N 44°28' W 002°04'0 0.1
2018-Jun-15 06:33N 44°28' W 002°04'0 0.1
2018-Jun-15 06:07N 44°28' W 002°04'0 0.3
2018-Jun-15 05:42N 44°28' W 002°04'0 0.9
2018-Jun-15 05:24N 44°28' W 002°04'0 0.5
2018-Jun-15 05:00N 44°28' W 002°04'1 0.5
2018-Jun-15 02:56N 44°29' W 002°05'0 0.4
2018-Jun-15 01:56N 44°29' W 002°05'1 2.1
2018-Jun-15 01:19N 44°28' W 002°05'0 0.4
2018-Jun-15 01:00N 44°28' W 002°05'1 1.0
2018-Jun-15 00:17N 44°28' W 002°05'0 1.0
2018-Jun-14 23:51N 44°28' W 002°06'1 2.7
2018-Jun-14 23:29N 44°28' W 002°05'1 1.0
2018-Jun-14 22:57N 44°28' W 002°05'0 1.0
2018-Jun-14 22:29N 44°28' W 002°06'1 0.8
2018-Jun-14 21:46N 44°29' W 002°05'0 0.7
2018-Jun-14 21:30N 44°29' W 002°06'0 0.7
2018-Jun-14 21:00N 44°29' W 002°06'0 0.6
2018-Jun-14 20:30N 44°28' W 002°06'1 0.8
2018-Jun-14 19:29N 44°29' W 002°06'1 0.3
2018-Jun-14 15:57N 44°28' W 002°05'1 0.7
2018-Jun-14 15:09N 44°28' W 002°04'0 0.3
2018-Jun-14 13:59N 44°28' W 002°05'0 0.6
2018-Jun-14 13:30N 44°28' W 002°05'1 0.7
2018-Jun-14 12:39N 44°28' W 002°06'0 0.8
2018-Jun-14 12:12N 44°27' W 002°06'0 0.8
2018-Jun-14 12:00N 44°27' W 002°06'0 0.7
2018-Jun-14 11:23N 44°27' W 002°07'0 0.6
2018-Jun-14 10:59N 44°27' W 002°07'0 0.5
2018-Jun-14 10:22N 44°27' W 002°08'0 0.6
2018-Jun-14 09:52N 44°27' W 002°08'0 0.4
2018-Jun-14 09:29N 44°27' W 002°08'0 0.2
2018-Jun-14 08:44N 44°27' W 002°09'0 0.0
2018-Jun-14 08:03N 44°27' W 002°09'0 1.1
2018-Jun-14 08:00N 44°27' W 002°09'11 0.9
2018-Jun-13 18:59N 44°16' W 002°08'3 6.7
2018-Jun-13 18:31N 44°13' W 002°09'5 6.7
2018-Jun-13 17:46N 44°08' W 002°10'2 6.7
2018-Jun-13 17:30N 44°07' W 002°11'3 6.6
2018-Jun-13 17:01N 44°03' W 002°12'2 4.9
2018-Jun-13 16:30N 44°01' W 002°13'2 4.5
2018-Jun-13 16:01N 43°59' W 002°13'2 4.6
2018-Jun-13 15:30N 43°56' W 002°14'2 4.9
2018-Jun-13 15:00N 43°54' W 002°14'3 5.3
2018-Jun-13 14:30N 43°51' W 002°15'3 5.5
2018-Jun-13 14:00N 43°49' W 002°16'3 5.8
2018-Jun-13 13:30N 43°46' W 002°17'3 5.7
2018-Jun-13 13:00N 43°43' W 002°18'3 5.6
2018-Jun-13 12:30N 43°40' W 002°19'3 5.4
2018-Jun-13 12:01N 43°38' W 002°20'3 5.2
2018-Jun-13 11:30N 43°35' W 002°20'2 4.9
2018-Jun-13 11:00N 43°33' W 002°21'2 4.6
2018-Jun-13 10:30N 43°31' W 002°22'2 4.3
2018-Jun-13 10:00N 43°28' W 002°22'2 4.3
2018-Jun-13 09:30N 43°26' W 002°22'2 3.8
2018-Jun-13 09:00N 43°24' W 002°22'2 3.9
2018-Jun-13 08:30N 43°23' W 002°23'2 4.5
2018-Jun-13 08:00N 43°20' W 002°24'1 0.0
2018-Jun-11 08:43N 43°19' W 002°25'0 0.0
2018-Jun-11 06:13N 43°19' W 002°25'0 0.0
2018-Jun-11 05:54N 43°19' W 002°25'1 0.7
2018-Jun-11 04:49N 43°20' W 002°25'1 4.4
2018-Jun-11 04:31N 43°21' W 002°24'3 5.0
2018-Jun-11 04:00N 43°24' W 002°23'4 7.3
2018-Jun-11 03:30N 43°27' W 002°21'4 7.2
2018-Jun-11 03:01N 43°31' W 002°20'4 7.5
2018-Jun-11 02:30N 43°34' W 002°19'4 7.8
2018-Jun-11 02:01N 43°38' W 002°17'4 7.8
2018-Jun-11 01:31N 43°42' W 002°16'4 7.9
2018-Jun-11 01:00N 43°46' W 002°15'4 8.3
2018-Jun-11 00:30N 43°50' W 002°13'4 8.3
2018-Jun-11 00:00N 43°54' W 002°12'4 8.6
2018-Jun-10 23:30N 43°58' W 002°11'4 8.5
2018-Jun-10 23:00N 44°02' W 002°10'14 8.2
2018-Jun-10 21:17N 44°16' W 002°05'12 5.7
2018-Jun-10 19:12N 44°28' W 002°07'0 0.1
2018-Jun-10 18:43N 44°28' W 002°07'0 0.6
2018-Jun-10 18:30N 44°28' W 002°06'0 0.7
2018-Jun-10 17:57N 44°28' W 002°06'0 0.7
2018-Jun-10 17:30N 44°28' W 002°05'0 0.4
2018-Jun-10 16:59N 44°28' W 002°05'2 0.5
2018-Jun-10 13:55N 44°29' W 002°06'0 0.2
2018-Jun-10 13:29N 44°30' W 002°06'3 1.4
2018-Jun-10 11:10N 44°27' W 002°09'0 0.5
2018-Jun-10 11:00N 44°27' W 002°09'0 0.4
2018-Jun-10 10:00N 44°27' W 002°09'0 0.6
2018-Jun-10 09:21N 44°26' W 002°09'0 0.2
2018-Jun-10 08:04N 44°26' W 002°09'0 0.0
2018-Jun-10 04:50N 44°26' W 002°08'0 0.3
2018-Jun-10 04:28N 44°26' W 002°08'1 1.3
2018-Jun-10 04:00N 44°26' W 002°09'2 2.7
2018-Jun-10 03:24N 44°27' W 002°07'2 1.7
2018-Jun-10 01:57N 44°30' W 002°06'1 0.7
2018-Jun-10 00:40N 44°29' W 002°07'0 0.3
2018-Jun-10 00:30N 44°29' W 002°07'0 0.1
2018-Jun-09 22:54N 44°29' W 002°07'2 5.4
2018-Jun-09 22:31N 44°27' W 002°08'1 0.3
2018-Jun-09 20:58N 44°28' W 002°08'1 3.2
2018-Jun-09 20:31N 44°27' W 002°09'0 0.5
2018-Jun-09 20:00N 44°27' W 002°09'0 0.7
2018-Jun-09 19:30N 44°27' W 002°09'0 0.7
2018-Jun-09 18:53N 44°27' W 002°09'0 0.9
2018-Jun-09 18:30N 44°28' W 002°08'0 0.8
2018-Jun-09 18:00N 44°28' W 002°08'0 0.6
2018-Jun-09 17:29N 44°28' W 002°07'2 0.5
2018-Jun-09 14:24N 44°28' W 002°05'1 0.6
2018-Jun-09 13:08N 44°29' W 002°06'0 0.5
2018-Jun-09 12:53N 44°29' W 002°06'1 2.5
2018-Jun-09 12:22N 44°28' W 002°06'1 0.7
2018-Jun-09 10:57N 44°27' W 002°07'0 0.8
2018-Jun-09 10:28N 44°27' W 002°08'1 0.7
2018-Jun-09 09:39N 44°27' W 002°09'0 0.5
2018-Jun-09 09:30N 44°27' W 002°09'0 0.2
2018-Jun-09 09:00N 44°27' W 002°09'0 0.3
2018-Jun-09 08:29N 44°27' W 002°09'0 0.2
2018-Jun-09 08:00N 44°27' W 002°09'0 0.6
2018-Jun-09 07:30N 44°27' W 002°09'0 0.3
2018-Jun-09 06:45N 44°27' W 002°09'0 0.5
2018-Jun-09 06:30N 44°27' W 002°09'0 0.3
2018-Jun-09 06:00N 44°27' W 002°09'  

Dump ship's entire track history